sensor_id;sensor_type;location;lat;lon;timestamp;temperature;humidity
21473;DHT22;10898;48.072;11.682;2024-02-16T00:00:52;3.90;91.20
21473;DHT22;10898;48.072;11.682;2024-02-16T00:02:55;3.90;91.50
21473;DHT22;10898;48.072;11.682;2024-02-16T00:04:57;3.90;91.50
21473;DHT22;10898;48.072;11.682;2024-02-16T00:06:59;3.80;91.40
21473;DHT22;10898;48.072;11.682;2024-02-16T00:09:00;3.90;91.20
21473;DHT22;10898;48.072;11.682;2024-02-16T00:11:02;3.80;91.00
21473;DHT22;10898;48.072;11.682;2024-02-16T00:13:04;3.70;91.40
21473;DHT22;10898;48.072;11.682;2024-02-16T00:15:06;3.70;91.00
21473;DHT22;10898;48.072;11.682;2024-02-16T00:17:08;3.70;91.30
21473;DHT22;10898;48.072;11.682;2024-02-16T00:19:11;3.70;91.70
21473;DHT22;10898;48.072;11.682;2024-02-16T00:21:13;3.70;91.70
21473;DHT22;10898;48.072;11.682;2024-02-16T00:23:15;3.70;91.70
21473;DHT22;10898;48.072;11.682;2024-02-16T00:25:17;3.70;91.80
21473;DHT22;10898;48.072;11.682;2024-02-16T00:27:19;3.70;91.80
21473;DHT22;10898;48.072;11.682;2024-02-16T00:29:21;3.70;91.70
21473;DHT22;10898;48.072;11.682;2024-02-16T00:31:23;3.70;91.60
21473;DHT22;10898;48.072;11.682;2024-02-16T00:33:24;3.70;91.20
21473;DHT22;10898;48.072;11.682;2024-02-16T00:35:26;3.70;91.10
21473;DHT22;10898;48.072;11.682;2024-02-16T00:37:28;3.70;91.10
21473;DHT22;10898;48.072;11.682;2024-02-16T00:39:30;3.70;91.20
21473;DHT22;10898;48.072;11.682;2024-02-16T00:41:31;3.70;91.70
21473;DHT22;10898;48.072;11.682;2024-02-16T00:43:33;3.60;92.60
21473;DHT22;10898;48.072;11.682;2024-02-16T00:45:35;3.60;92.70
21473;DHT22;10898;48.072;11.682;2024-02-16T00:47:36;3.60;92.60
21473;DHT22;10898;48.072;11.682;2024-02-16T00:49:38;3.60;92.10
21473;DHT22;10898;48.072;11.682;2024-02-16T00:51:40;3.60;91.70
21473;DHT22;10898;48.072;11.682;2024-02-16T00:53:42;3.60;91.80
21473;DHT22;10898;48.072;11.682;2024-02-16T00:55:43;3.60;91.50
21473;DHT22;10898;48.072;11.682;2024-02-16T00:57:46;3.60;91.20
21473;DHT22;10898;48.072;11.682;2024-02-16T00:59:48;3.60;91.10
21473;DHT22;10898;48.072;11.682;2024-02-16T01:01:50;3.60;90.80
21473;DHT22;10898;48.072;11.682;2024-02-16T01:03:52;3.60;91.20
21473;DHT22;10898;48.072;11.682;2024-02-16T01:05:53;3.60;91.10
21473;DHT22;10898;48.072;11.682;2024-02-16T01:07:55;3.60;90.80
21473;DHT22;10898;48.072;11.682;2024-02-16T01:09:57;3.50;90.50
21473;DHT22;10898;48.072;11.682;2024-02-16T01:11:59;3.50;91.00
21473;DHT22;10898;48.072;11.682;2024-02-16T01:14:00;3.50;91.20
21473;DHT22;10898;48.072;11.682;2024-02-16T01:16:03;3.50;91.40
21473;DHT22;10898;48.072;11.682;2024-02-16T01:18:04;3.50;91.60
21473;DHT22;10898;48.072;11.682;2024-02-16T01:20:07;3.50;91.90
21473;DHT22;10898;48.072;11.682;2024-02-16T01:22:13;3.50;92.40
21473;DHT22;10898;48.072;11.682;2024-02-16T01:24:15;3.50;92.10
21473;DHT22;10898;48.072;11.682;2024-02-16T01:26:17;3.50;92.30
21473;DHT22;10898;48.072;11.682;2024-02-16T01:28:18;3.50;92.60
21473;DHT22;10898;48.072;11.682;2024-02-16T01:30:20;3.50;92.10
21473;DHT22;10898;48.072;11.682;2024-02-16T01:32:23;3.50;91.80
21473;DHT22;10898;48.072;11.682;2024-02-16T01:34:24;3.50;91.70
21473;DHT22;10898;48.072;11.682;2024-02-16T01:36:26;3.50;91.20
21473;DHT22;10898;48.072;11.682;2024-02-16T01:38:28;3.50;90.90
21473;DHT22;10898;48.072;11.682;2024-02-16T01:40:29;3.40;90.90
21473;DHT22;10898;48.072;11.682;2024-02-16T01:42:31;3.40;91.20
21473;DHT22;10898;48.072;11.682;2024-02-16T01:44:33;3.40;92.20
21473;DHT22;10898;48.072;11.682;2024-02-16T01:46:35;3.40;92.60
21473;DHT22;10898;48.072;11.682;2024-02-16T01:48:37;3.40;92.70
21473;DHT22;10898;48.072;11.682;2024-02-16T01:50:44;3.40;92.40
21473;DHT22;10898;48.072;11.682;2024-02-16T01:52:46;3.40;92.30
21473;DHT22;10898;48.072;11.682;2024-02-16T01:54:48;3.40;92.20
21473;DHT22;10898;48.072;11.682;2024-02-16T01:56:50;3.40;92.20
21473;DHT22;10898;48.072;11.682;2024-02-16T01:58:52;3.40;92.10
21473;DHT22;10898;48.072;11.682;2024-02-16T02:00:53;3.40;92.20
21473;DHT22;10898;48.072;11.682;2024-02-16T02:02:56;3.40;92.30
21473;DHT22;10898;48.072;11.682;2024-02-16T02:04:58;3.40;92.50
21473;DHT22;10898;48.072;11.682;2024-02-16T02:07:10;3.40;92.50
21473;DHT22;10898;48.072;11.682;2024-02-16T02:09:12;3.40;92.70
21473;DHT22;10898;48.072;11.682;2024-02-16T02:11:14;3.50;92.80
21473;DHT22;10898;48.072;11.682;2024-02-16T02:13:15;3.40;92.90
21473;DHT22;10898;48.072;11.682;2024-02-16T02:15:17;3.40;93.00
21473;DHT22;10898;48.072;11.682;2024-02-16T02:17:20;3.40;93.20
21473;DHT22;10898;48.072;11.682;2024-02-16T02:19:22;3.50;93.30
21473;DHT22;10898;48.072;11.682;2024-02-16T02:21:23;3.50;93.40
21473;DHT22;10898;48.072;11.682;2024-02-16T02:23:25;3.50;93.50
21473;DHT22;10898;48.072;11.682;2024-02-16T02:25:27;3.50;93.60
21473;DHT22;10898;48.072;11.682;2024-02-16T02:27:30;3.50;93.60
21473;DHT22;10898;48.072;11.682;2024-02-16T02:29:32;3.50;93.60
21473;DHT22;10898;48.072;11.682;2024-02-16T02:31:34;3.50;93.70
21473;DHT22;10898;48.072;11.682;2024-02-16T02:33:36;3.50;93.80
21473;DHT22;10898;48.072;11.682;2024-02-16T02:35:38;3.50;93.80
21473;DHT22;10898;48.072;11.682;2024-02-16T02:37:40;3.50;93.70
21473;DHT22;10898;48.072;11.682;2024-02-16T02:39:42;3.50;93.70
21473;DHT22;10898;48.072;11.682;2024-02-16T02:41:45;3.50;93.70
21473;DHT22;10898;48.072;11.682;2024-02-16T02:43:47;3.50;93.80
21473;DHT22;10898;48.072;11.682;2024-02-16T02:45:48;3.50;93.70
21473;DHT22;10898;48.072;11.682;2024-02-16T02:47:51;3.50;93.70
21473;DHT22;10898;48.072;11.682;2024-02-16T02:49:53;3.50;93.90
21473;DHT22;10898;48.072;11.682;2024-02-16T02:51:54;3.50;94.00
21473;DHT22;10898;48.072;11.682;2024-02-16T02:53:56;3.50;93.90
21473;DHT22;10898;48.072;11.682;2024-02-16T02:55:58;3.60;93.70
21473;DHT22;10898;48.072;11.682;2024-02-16T02:57:59;3.50;93.70
21473;DHT22;10898;48.072;11.682;2024-02-16T03:00:05;3.50;93.70
21473;DHT22;10898;48.072;11.682;2024-02-16T03:02:12;3.50;93.70
21473;DHT22;10898;48.072;11.682;2024-02-16T03:04:14;3.50;93.90
21473;DHT22;10898;48.072;11.682;2024-02-16T03:06:18;3.50;94.00
21473;DHT22;10898;48.072;11.682;2024-02-16T03:08:20;3.50;94.00
21473;DHT22;10898;48.072;11.682;2024-02-16T03:10:22;3.50;94.00
21473;DHT22;10898;48.072;11.682;2024-02-16T03:12:25;3.50;94.00
21473;DHT22;10898;48.072;11.682;2024-02-16T03:14:27;3.50;94.10
21473;DHT22;10898;48.072;11.682;2024-02-16T03:16:28;3.50;94.40
21473;DHT22;10898;48.072;11.682;2024-02-16T03:18:30;3.50;94.30
21473;DHT22;10898;48.072;11.682;2024-02-16T03:20:33;3.50;94.30
21473;DHT22;10898;48.072;11.682;2024-02-16T03:22:34;3.60;94.40
21473;DHT22;10898;48.072;11.682;2024-02-16T03:24:36;3.60;94.40
21473;DHT22;10898;48.072;11.682;2024-02-16T03:26:37;3.60;94.60
21473;DHT22;10898;48.072;11.682;2024-02-16T03:28:39;3.60;94.50
21473;DHT22;10898;48.072;11.682;2024-02-16T03:30:42;3.60;94.30
21473;DHT22;10898;48.072;11.682;2024-02-16T03:32:47;3.60;94.20
21473;DHT22;10898;48.072;11.682;2024-02-16T03:34:50;3.70;94.10
21473;DHT22;10898;48.072;11.682;2024-02-16T03:36:51;3.70;93.90
21473;DHT22;10898;48.072;11.682;2024-02-16T03:38:53;3.70;94.00
21473;DHT22;10898;48.072;11.682;2024-02-16T03:40:55;3.70;94.00
21473;DHT22;10898;48.072;11.682;2024-02-16T03:42:58;3.70;94.20
21473;DHT22;10898;48.072;11.682;2024-02-16T03:44:59;3.70;94.00
21473;DHT22;10898;48.072;11.682;2024-02-16T03:47:01;3.70;94.00
21473;DHT22;10898;48.072;11.682;2024-02-16T03:49:03;3.70;94.00
21473;DHT22;10898;48.072;11.682;2024-02-16T03:51:05;3.70;94.10
21473;DHT22;10898;48.072;11.682;2024-02-16T03:53:07;3.70;94.20
21473;DHT22;10898;48.072;11.682;2024-02-16T03:55:08;3.70;94.20
21473;DHT22;10898;48.072;11.682;2024-02-16T03:57:10;3.70;94.30
21473;DHT22;10898;48.072;11.682;2024-02-16T03:59:13;3.70;94.50
21473;DHT22;10898;48.072;11.682;2024-02-16T04:01:15;3.70;94.60
21473;DHT22;10898;48.072;11.682;2024-02-16T04:03:17;3.70;94.50
21473;DHT22;10898;48.072;11.682;2024-02-16T04:05:19;3.70;94.70
21473;DHT22;10898;48.072;11.682;2024-02-16T04:07:20;3.70;94.50
21473;DHT22;10898;48.072;11.682;2024-02-16T04:09:22;3.70;94.60
21473;DHT22;10898;48.072;11.682;2024-02-16T04:11:24;3.70;94.60
21473;DHT22;10898;48.072;11.682;2024-02-16T04:13:25;3.70;94.70
21473;DHT22;10898;48.072;11.682;2024-02-16T04:15:28;3.70;94.50
21473;DHT22;10898;48.072;11.682;2024-02-16T04:17:30;3.70;94.30
21473;DHT22;10898;48.072;11.682;2024-02-16T04:19:31;3.70;94.40
21473;DHT22;10898;48.072;11.682;2024-02-16T04:21:34;3.70;94.30
21473;DHT22;10898;48.072;11.682;2024-02-16T04:23:36;3.70;94.50
21473;DHT22;10898;48.072;11.682;2024-02-16T04:25:38;3.70;94.50
21473;DHT22;10898;48.072;11.682;2024-02-16T04:27:40;3.70;94.40
21473;DHT22;10898;48.072;11.682;2024-02-16T04:29:41;3.70;94.30
21473;DHT22;10898;48.072;11.682;2024-02-16T04:31:43;3.70;94.10
21473;DHT22;10898;48.072;11.682;2024-02-16T04:33:47;3.70;94.00
21473;DHT22;10898;48.072;11.682;2024-02-16T04:35:49;3.70;93.90
21473;DHT22;10898;48.072;11.682;2024-02-16T04:37:52;3.70;93.90
21473;DHT22;10898;48.072;11.682;2024-02-16T04:39:53;3.70;93.80
21473;DHT22;10898;48.072;11.682;2024-02-16T04:41:55;3.80;93.60
21473;DHT22;10898;48.072;11.682;2024-02-16T04:43:57;3.80;93.50
21473;DHT22;10898;48.072;11.682;2024-02-16T04:46:00;3.80;93.60
21473;DHT22;10898;48.072;11.682;2024-02-16T04:48:02;3.80;93.50
21473;DHT22;10898;48.072;11.682;2024-02-16T04:50:04;3.80;93.60
21473;DHT22;10898;48.072;11.682;2024-02-16T04:52:06;3.80;93.60
21473;DHT22;10898;48.072;11.682;2024-02-16T04:54:10;3.80;93.40
21473;DHT22;10898;48.072;11.682;2024-02-16T04:56:11;3.90;93.30
21473;DHT22;10898;48.072;11.682;2024-02-16T04:58:13;3.80;93.20
21473;DHT22;10898;48.072;11.682;2024-02-16T05:00:15;3.90;93.50
21473;DHT22;10898;48.072;11.682;2024-02-16T05:02:17;3.90;93.40
21473;DHT22;10898;48.072;11.682;2024-02-16T05:04:19;3.90;93.30
21473;DHT22;10898;48.072;11.682;2024-02-16T05:06:21;3.90;93.20
21473;DHT22;10898;48.072;11.682;2024-02-16T05:08:24;3.90;93.00
21473;DHT22;10898;48.072;11.682;2024-02-16T05:10:26;3.90;93.20
21473;DHT22;10898;48.072;11.682;2024-02-16T05:12:28;3.90;93.20
21473;DHT22;10898;48.072;11.682;2024-02-16T05:14:30;3.90;93.20
21473;DHT22;10898;48.072;11.682;2024-02-16T05:16:32;3.90;93.30
21473;DHT22;10898;48.072;11.682;2024-02-16T05:18:34;3.90;93.30
21473;DHT22;10898;48.072;11.682;2024-02-16T05:20:35;3.90;92.70
21473;DHT22;10898;48.072;11.682;2024-02-16T05:22:37;4.00;92.20
21473;DHT22;10898;48.072;11.682;2024-02-16T05:24:39;4.00;92.10
21473;DHT22;10898;48.072;11.682;2024-02-16T05:26:41;4.00;91.70
21473;DHT22;10898;48.072;11.682;2024-02-16T05:28:42;4.00;91.80
21473;DHT22;10898;48.072;11.682;2024-02-16T05:30:44;4.00;92.70
21473;DHT22;10898;48.072;11.682;2024-02-16T05:32:46;4.00;93.10
21473;DHT22;10898;48.072;11.682;2024-02-16T05:34:49;4.10;93.20
21473;DHT22;10898;48.072;11.682;2024-02-16T05:36:51;4.10;93.20
21473;DHT22;10898;48.072;11.682;2024-02-16T05:38:53;4.10;92.80
21473;DHT22;10898;48.072;11.682;2024-02-16T05:40:57;4.10;92.50
21473;DHT22;10898;48.072;11.682;2024-02-16T05:42:59;4.10;92.00
21473;DHT22;10898;48.072;11.682;2024-02-16T05:45:01;4.10;91.70
21473;DHT22;10898;48.072;11.682;2024-02-16T05:47:03;4.10;91.60
21473;DHT22;10898;48.072;11.682;2024-02-16T05:49:05;4.20;91.90
21473;DHT22;10898;48.072;11.682;2024-02-16T05:51:07;4.20;92.40
21473;DHT22;10898;48.072;11.682;2024-02-16T05:53:09;4.20;92.50
21473;DHT22;10898;48.072;11.682;2024-02-16T05:55:12;4.20;92.60
21473;DHT22;10898;48.072;11.682;2024-02-16T05:57:14;4.20;92.80
21473;DHT22;10898;48.072;11.682;2024-02-16T05:59:16;4.20;92.60
21473;DHT22;10898;48.072;11.682;2024-02-16T06:01:18;4.20;92.50
21473;DHT22;10898;48.072;11.682;2024-02-16T06:03:20;4.20;92.40
21473;DHT22;10898;48.072;11.682;2024-02-16T06:05:22;4.30;91.80
21473;DHT22;10898;48.072;11.682;2024-02-16T06:07:24;4.30;91.90
21473;DHT22;10898;48.072;11.682;2024-02-16T06:09:26;4.30;92.00
21473;DHT22;10898;48.072;11.682;2024-02-16T06:11:27;4.30;92.10
21473;DHT22;10898;48.072;11.682;2024-02-16T06:13:29;4.30;92.20
21473;DHT22;10898;48.072;11.682;2024-02-16T06:15:31;4.30;92.00
21473;DHT22;10898;48.072;11.682;2024-02-16T06:17:33;4.30;92.10
21473;DHT22;10898;48.072;11.682;2024-02-16T06:19:35;4.30;92.30
21473;DHT22;10898;48.072;11.682;2024-02-16T06:21:37;4.30;92.50
21473;DHT22;10898;48.072;11.682;2024-02-16T06:23:38;4.30;92.30
21473;DHT22;10898;48.072;11.682;2024-02-16T06:25:40;4.30;92.10
21473;DHT22;10898;48.072;11.682;2024-02-16T06:27:43;4.30;92.30
21473;DHT22;10898;48.072;11.682;2024-02-16T06:29:45;4.40;92.40
21473;DHT22;10898;48.072;11.682;2024-02-16T06:31:47;4.40;92.70
21473;DHT22;10898;48.072;11.682;2024-02-16T06:33:51;4.40;92.80
21473;DHT22;10898;48.072;11.682;2024-02-16T06:35:53;4.40;92.80
21473;DHT22;10898;48.072;11.682;2024-02-16T06:37:55;4.40;92.90
21473;DHT22;10898;48.072;11.682;2024-02-16T06:39:57;4.40;93.10
21473;DHT22;10898;48.072;11.682;2024-02-16T06:41:58;4.40;93.00
21473;DHT22;10898;48.072;11.682;2024-02-16T06:44:01;4.50;93.20
21473;DHT22;10898;48.072;11.682;2024-02-16T06:46:04;4.50;93.20
21473;DHT22;10898;48.072;11.682;2024-02-16T06:48:06;4.50;93.40
21473;DHT22;10898;48.072;11.682;2024-02-16T06:50:08;4.50;93.30
21473;DHT22;10898;48.072;11.682;2024-02-16T06:52:10;4.50;93.30
21473;DHT22;10898;48.072;11.682;2024-02-16T06:54:12;4.50;93.30
21473;DHT22;10898;48.072;11.682;2024-02-16T06:56:14;4.50;93.30
21473;DHT22;10898;48.072;11.682;2024-02-16T06:58:15;4.60;93.30
21473;DHT22;10898;48.072;11.682;2024-02-16T07:00:17;4.70;93.40
21473;DHT22;10898;48.072;11.682;2024-02-16T07:02:21;4.70;93.40
21473;DHT22;10898;48.072;11.682;2024-02-16T07:04:23;4.70;93.70
21473;DHT22;10898;48.072;11.682;2024-02-16T07:06:25;4.70;94.00
21473;DHT22;10898;48.072;11.682;2024-02-16T07:08:28;4.80;93.90
21473;DHT22;10898;48.072;11.682;2024-02-16T07:10:29;4.90;94.30
21473;DHT22;10898;48.072;11.682;2024-02-16T07:12:32;4.90;94.60
21473;DHT22;10898;48.072;11.682;2024-02-16T07:14:35;4.90;94.80
21473;DHT22;10898;48.072;11.682;2024-02-16T07:16:37;5.00;94.80
21473;DHT22;10898;48.072;11.682;2024-02-16T07:18:38;5.00;94.60
21473;DHT22;10898;48.072;11.682;2024-02-16T07:20:40;5.00;94.70
21473;DHT22;10898;48.072;11.682;2024-02-16T07:22:42;5.10;94.70
21473;DHT22;10898;48.072;11.682;2024-02-16T07:24:44;5.10;94.60
21473;DHT22;10898;48.072;11.682;2024-02-16T07:26:45;5.10;94.60
21473;DHT22;10898;48.072;11.682;2024-02-16T07:28:47;5.20;94.50
21473;DHT22;10898;48.072;11.682;2024-02-16T07:30:49;5.30;94.50
21473;DHT22;10898;48.072;11.682;2024-02-16T07:32:51;5.30;94.40
21473;DHT22;10898;48.072;11.682;2024-02-16T07:34:54;5.30;94.20
21473;DHT22;10898;48.072;11.682;2024-02-16T07:36:56;5.50;94.10
21473;DHT22;10898;48.072;11.682;2024-02-16T07:38:58;5.50;93.70
21473;DHT22;10898;48.072;11.682;2024-02-16T07:41:00;5.60;93.20
21473;DHT22;10898;48.072;11.682;2024-02-16T07:43:06;5.60;92.90
21473;DHT22;10898;48.072;11.682;2024-02-16T07:45:10;5.70;92.70
21473;DHT22;10898;48.072;11.682;2024-02-16T07:47:13;5.80;93.00
21473;DHT22;10898;48.072;11.682;2024-02-16T07:49:15;5.80;92.70
21473;DHT22;10898;48.072;11.682;2024-02-16T07:51:16;5.90;91.90
21473;DHT22;10898;48.072;11.682;2024-02-16T07:53:18;6.00;91.40
21473;DHT22;10898;48.072;11.682;2024-02-16T07:55:20;6.10;91.10
21473;DHT22;10898;48.072;11.682;2024-02-16T07:57:23;6.20;90.30
21473;DHT22;10898;48.072;11.682;2024-02-16T07:59:25;6.30;90.50
21473;DHT22;10898;48.072;11.682;2024-02-16T08:01:27;6.40;90.70
21473;DHT22;10898;48.072;11.682;2024-02-16T08:03:29;6.50;90.60
21473;DHT22;10898;48.072;11.682;2024-02-16T08:05:30;6.60;90.70
21473;DHT22;10898;48.072;11.682;2024-02-16T08:07:32;6.70;90.00
21473;DHT22;10898;48.072;11.682;2024-02-16T08:09:34;6.80;88.20
21473;DHT22;10898;48.072;11.682;2024-02-16T08:11:36;7.00;87.30
21473;DHT22;10898;48.072;11.682;2024-02-16T08:13:38;7.20;87.00
21473;DHT22;10898;48.072;11.682;2024-02-16T08:15:39;7.30;86.70
21473;DHT22;10898;48.072;11.682;2024-02-16T08:17:41;7.50;85.70
21473;DHT22;10898;48.072;11.682;2024-02-16T08:19:44;7.60;83.50
21473;DHT22;10898;48.072;11.682;2024-02-16T08:21:52;7.80;82.10
21473;DHT22;10898;48.072;11.682;2024-02-16T08:23:54;7.90;81.00
21473;DHT22;10898;48.072;11.682;2024-02-16T08:25:56;8.10;81.10
21473;DHT22;10898;48.072;11.682;2024-02-16T08:27:58;8.20;80.70
21473;DHT22;10898;48.072;11.682;2024-02-16T08:30:00;8.40;79.60
21473;DHT22;10898;48.072;11.682;2024-02-16T08:32:04;8.50;79.20
21473;DHT22;10898;48.072;11.682;2024-02-16T08:34:07;8.60;76.90
21473;DHT22;10898;48.072;11.682;2024-02-16T08:36:09;8.80;75.70
21473;DHT22;10898;48.072;11.682;2024-02-16T08:38:11;8.90;75.70
21473;DHT22;10898;48.072;11.682;2024-02-16T08:40:13;9.00;75.40
21473;DHT22;10898;48.072;11.682;2024-02-16T08:42:17;9.10;74.00
21473;DHT22;10898;48.072;11.682;2024-02-16T08:44:20;9.20;74.10
21473;DHT22;10898;48.072;11.682;2024-02-16T08:46:21;9.30;74.00
21473;DHT22;10898;48.072;11.682;2024-02-16T08:48:25;9.40;73.60
21473;DHT22;10898;48.072;11.682;2024-02-16T08:50:27;9.50;73.00
21473;DHT22;10898;48.072;11.682;2024-02-16T08:52:29;9.60;71.90
21473;DHT22;10898;48.072;11.682;2024-02-16T08:54:31;9.70;71.20
21473;DHT22;10898;48.072;11.682;2024-02-16T08:56:32;9.80;71.20
21473;DHT22;10898;48.072;11.682;2024-02-16T08:58:37;10.00;70.80
21473;DHT22;10898;48.072;11.682;2024-02-16T09:00:38;10.00;70.30
21473;DHT22;10898;48.072;11.682;2024-02-16T09:02:40;10.10;69.80
21473;DHT22;10898;48.072;11.682;2024-02-16T09:04:42;10.20;69.10
21473;DHT22;10898;48.072;11.682;2024-02-16T09:06:44;10.30;68.70
21473;DHT22;10898;48.072;11.682;2024-02-16T09:08:46;10.40;68.60
21473;DHT22;10898;48.072;11.682;2024-02-16T09:10:48;10.50;67.50
21473;DHT22;10898;48.072;11.682;2024-02-16T09:12:50;10.70;66.20
21473;DHT22;10898;48.072;11.682;2024-02-16T09:14:53;10.80;67.00
21473;DHT22;10898;48.072;11.682;2024-02-16T09:16:55;10.90;65.40
21473;DHT22;10898;48.072;11.682;2024-02-16T09:19:00;11.00;64.30
21473;DHT22;10898;48.072;11.682;2024-02-16T09:21:02;11.10;63.50
21473;DHT22;10898;48.072;11.682;2024-02-16T09:23:04;11.30;62.20
21473;DHT22;10898;48.072;11.682;2024-02-16T09:25:06;11.30;62.50
21473;DHT22;10898;48.072;11.682;2024-02-16T09:27:07;11.40;62.20
21473;DHT22;10898;48.072;11.682;2024-02-16T09:29:12;11.40;62.40
21473;DHT22;10898;48.072;11.682;2024-02-16T09:31:14;11.50;61.10
21473;DHT22;10898;48.072;11.682;2024-02-16T09:33:16;11.50;60.80
21473;DHT22;10898;48.072;11.682;2024-02-16T09:35:18;11.50;60.50
21473;DHT22;10898;48.072;11.682;2024-02-16T09:37:20;11.60;60.70
21473;DHT22;10898;48.072;11.682;2024-02-16T09:39:22;11.60;60.70
21473;DHT22;10898;48.072;11.682;2024-02-16T09:41:23;11.70;61.60
21473;DHT22;10898;48.072;11.682;2024-02-16T09:43:26;11.70;60.70
21473;DHT22;10898;48.072;11.682;2024-02-16T09:45:29;11.70;61.10
21473;DHT22;10898;48.072;11.682;2024-02-16T09:47:30;11.80;60.80
21473;DHT22;10898;48.072;11.682;2024-02-16T09:49:34;11.90;60.80
21473;DHT22;10898;48.072;11.682;2024-02-16T09:51:41;11.90;60.20
21473;DHT22;10898;48.072;11.682;2024-02-16T09:53:43;11.90;60.90
21473;DHT22;10898;48.072;11.682;2024-02-16T09:55:45;11.90;60.30
21473;DHT22;10898;48.072;11.682;2024-02-16T09:57:46;11.90;60.30
21473;DHT22;10898;48.072;11.682;2024-02-16T09:59:48;11.90;61.00
21473;DHT22;10898;48.072;11.682;2024-02-16T10:01:58;12.00;60.40
21473;DHT22;10898;48.072;11.682;2024-02-16T10:04:06;12.00;60.10
21473;DHT22;10898;48.072;11.682;2024-02-16T10:06:10;12.00;59.70
21473;DHT22;10898;48.072;11.682;2024-02-16T10:08:13;12.00;60.10
21473;DHT22;10898;48.072;11.682;2024-02-16T10:10:22;12.10;61.10
21473;DHT22;10898;48.072;11.682;2024-02-16T10:12:24;12.10;60.40
21473;DHT22;10898;48.072;11.682;2024-02-16T10:14:26;12.20;60.20
21473;DHT22;10898;48.072;11.682;2024-02-16T10:16:28;12.30;60.00
21473;DHT22;10898;48.072;11.682;2024-02-16T10:18:29;12.40;60.70
21473;DHT22;10898;48.072;11.682;2024-02-16T10:20:32;12.50;61.00
21473;DHT22;10898;48.072;11.682;2024-02-16T10:22:34;12.50;59.60
21473;DHT22;10898;48.072;11.682;2024-02-16T10:24:49;12.60;59.60
21473;DHT22;10898;48.072;11.682;2024-02-16T10:26:52;12.70;59.00
21473;DHT22;10898;48.072;11.682;2024-02-16T10:28:57;12.70;57.80
21473;DHT22;10898;48.072;11.682;2024-02-16T10:30:59;12.80;57.60
21473;DHT22;10898;48.072;11.682;2024-02-16T10:33:03;12.90;56.40
21473;DHT22;10898;48.072;11.682;2024-02-16T10:35:06;13.00;56.60
21473;DHT22;10898;48.072;11.682;2024-02-16T10:37:08;13.10;56.20
21473;DHT22;10898;48.072;11.682;2024-02-16T10:39:10;13.10;56.10
21473;DHT22;10898;48.072;11.682;2024-02-16T10:41:13;13.20;56.60
21473;DHT22;10898;48.072;11.682;2024-02-16T10:43:15;13.30;54.90
21473;DHT22;10898;48.072;11.682;2024-02-16T10:45:17;13.30;53.60
21473;DHT22;10898;48.072;11.682;2024-02-16T10:47:20;13.50;53.50
21473;DHT22;10898;48.072;11.682;2024-02-16T10:49:22;13.50;54.40
21473;DHT22;10898;48.072;11.682;2024-02-16T10:51:30;13.60;53.40
21473;DHT22;10898;48.072;11.682;2024-02-16T10:53:32;13.70;53.80
21473;DHT22;10898;48.072;11.682;2024-02-16T10:55:34;13.80;51.60
21473;DHT22;10898;48.072;11.682;2024-02-16T10:57:36;13.90;51.10
21473;DHT22;10898;48.072;11.682;2024-02-16T10:59:42;13.90;50.00
21473;DHT22;10898;48.072;11.682;2024-02-16T11:01:59;13.90;50.40
21473;DHT22;10898;48.072;11.682;2024-02-16T11:04:01;13.90;50.10
21473;DHT22;10898;48.072;11.682;2024-02-16T11:06:17;13.90;50.90
21473;DHT22;10898;48.072;11.682;2024-02-16T11:08:20;13.90;51.10
21473;DHT22;10898;48.072;11.682;2024-02-16T11:10:21;14.00;51.70
21473;DHT22;10898;48.072;11.682;2024-02-16T11:12:23;14.00;52.10
21473;DHT22;10898;48.072;11.682;2024-02-16T11:14:34;14.10;50.90
21473;DHT22;10898;48.072;11.682;2024-02-16T11:16:43;14.20;50.90
21473;DHT22;10898;48.072;11.682;2024-02-16T11:18:45;14.30;51.50
21473;DHT22;10898;48.072;11.682;2024-02-16T11:20:48;14.40;51.50
21473;DHT22;10898;48.072;11.682;2024-02-16T11:22:50;14.40;50.80
21473;DHT22;10898;48.072;11.682;2024-02-16T11:24:53;14.50;51.40
21473;DHT22;10898;48.072;11.682;2024-02-16T11:27:01;14.60;50.80
21473;DHT22;10898;48.072;11.682;2024-02-16T11:29:03;14.70;50.80
21473;DHT22;10898;48.072;11.682;2024-02-16T11:31:04;14.80;49.80
21473;DHT22;10898;48.072;11.682;2024-02-16T11:33:10;14.80;50.60
21473;DHT22;10898;48.072;11.682;2024-02-16T11:35:11;14.90;49.70
21473;DHT22;10898;48.072;11.682;2024-02-16T11:37:13;15.00;50.20
21473;DHT22;10898;48.072;11.682;2024-02-16T11:39:18;15.00;50.10
21473;DHT22;10898;48.072;11.682;2024-02-16T11:41:20;15.00;50.50
21473;DHT22;10898;48.072;11.682;2024-02-16T11:43:24;15.00;51.10
21473;DHT22;10898;48.072;11.682;2024-02-16T11:45:26;15.10;50.50
21473;DHT22;10898;48.072;11.682;2024-02-16T11:47:28;15.20;50.50
21473;DHT22;10898;48.072;11.682;2024-02-16T11:49:31;15.30;49.40
21473;DHT22;10898;48.072;11.682;2024-02-16T11:51:33;15.40;49.70
21473;DHT22;10898;48.072;11.682;2024-02-16T11:53:35;15.50;49.80
21473;DHT22;10898;48.072;11.682;2024-02-16T11:55:37;15.50;50.00
21473;DHT22;10898;48.072;11.682;2024-02-16T11:57:38;15.60;49.70
21473;DHT22;10898;48.072;11.682;2024-02-16T11:59:40;15.60;50.30
21473;DHT22;10898;48.072;11.682;2024-02-16T12:01:55;15.60;50.10
21473;DHT22;10898;48.072;11.682;2024-02-16T12:03:57;15.70;49.70
21473;DHT22;10898;48.072;11.682;2024-02-16T12:05:59;15.70;49.70
21473;DHT22;10898;48.072;11.682;2024-02-16T12:08:01;15.80;49.90
21473;DHT22;10898;48.072;11.682;2024-02-16T12:10:03;15.80;49.60
21473;DHT22;10898;48.072;11.682;2024-02-16T12:12:08;15.80;50.20
21473;DHT22;10898;48.072;11.682;2024-02-16T12:14:10;15.90;49.50
21473;DHT22;10898;48.072;11.682;2024-02-16T12:16:11;16.00;49.40
21473;DHT22;10898;48.072;11.682;2024-02-16T12:20:22;16.00;49.70
21473;DHT22;10898;48.072;11.682;2024-02-16T12:22:24;16.10;50.50
21473;DHT22;10898;48.072;11.682;2024-02-16T12:24:25;16.20;49.30
21473;DHT22;10898;48.072;11.682;2024-02-16T12:26:27;16.20;49.20
21473;DHT22;10898;48.072;11.682;2024-02-16T12:28:29;16.30;48.80
21473;DHT22;10898;48.072;11.682;2024-02-16T12:30:33;16.40;49.30
21473;DHT22;10898;48.072;11.682;2024-02-16T12:32:35;16.40;48.80
21473;DHT22;10898;48.072;11.682;2024-02-16T12:34:37;16.50;48.70
21473;DHT22;10898;48.072;11.682;2024-02-16T12:36:39;16.50;48.50
21473;DHT22;10898;48.072;11.682;2024-02-16T12:38:43;16.60;48.40
21473;DHT22;10898;48.072;11.682;2024-02-16T12:40:46;16.70;49.10
21473;DHT22;10898;48.072;11.682;2024-02-16T12:42:48;16.80;48.70
21473;DHT22;10898;48.072;11.682;2024-02-16T12:44:50;16.90;48.20
21473;DHT22;10898;48.072;11.682;2024-02-16T12:46:51;17.00;47.90
21473;DHT22;10898;48.072;11.682;2024-02-16T12:48:53;17.00;47.90
21473;DHT22;10898;48.072;11.682;2024-02-16T12:50:55;17.00;47.50
21473;DHT22;10898;48.072;11.682;2024-02-16T12:52:58;17.00;47.80